Station Historical Data
Daily Summary for October 2, 2017 Units:  Metric    English   Both
« Previous Day
Next Day »
Daily Weekly Monthly Yearly Custom
  High: Low: Average:
Temperature: 23.6 °C 5.2 °C 13.8 °C
Dew Point: 10.3 °C 3.3 °C 6.5 °C
Humidity: 88% 31% 65%
Wind Speed: 8km/h 0km/h 1.1km/h
Wind Gust: 14.5km/h - -
Wind- - East
Pressure: 1029.7 hPa 1027 hPa -
Precipitation: 0 mm    
Historical Graphs
 
 
Tabular Data for October 2, 2017
Time Temperature Dew Point Pressure Wind Wind Speed Wind Gust Humidity Rainfall Rate (Hourly)
00:04 8.7 °C 5.9 °C 1027.3 hPa Calm     83% 0 mm
00:09 8.7 °C 5.9 °C 1027.3 hPa Calm     83% 0 mm
00:14 8.7 °C 5.9 °C 1027.3 hPa Calm     83% 0 mm
00:19 8.5 °C 5.8 °C 1027.3 hPa Calm     83% 0 mm
00:24 8.4 °C 5.7 °C 1027.3 hPa Calm     83% 0 mm
00:29 8.4 °C 5.5 °C 1027.3 hPa Calm     82% 0 mm
00:34 8.3 °C 5.6 °C 1027.3 hPa Calm     83% 0 mm
00:39 8.2 °C 5.4 °C 1027.3 hPa Calm     83% 0 mm
00:44 8.1 °C 5.3 °C 1027.3 hPa Calm     83% 0 mm
00:49 7.9 °C 5.4 °C 1027 hPa Calm     84% 0 mm
00:54 7.8 °C 5.3 °C 1027 hPa Calm     84% 0 mm
00:59 7.8 °C 5.2 °C 1027.3 hPa Calm     84% 0 mm
01:04 7.6 °C 5.1 °C 1027.3 hPa Calm     84% 0 mm
01:09 7.6 °C 5.2 °C 1027 hPa Calm     85% 0 mm
01:14 7.4 °C 5.1 °C 1027 hPa Calm     85% 0 mm
01:19 7.4 °C 5.1 °C 1027 hPa Calm     85% 0 mm
01:24 7.4 °C 5.1 °C 1027 hPa Calm     85% 0 mm
01:29 7.4 °C 5.1 °C 1027 hPa Calm     85% 0 mm
01:34 7.3 °C 4.9 °C 1027 hPa Calm     85% 0 mm
01:39 7.3 °C 4.9 °C 1027 hPa Calm     85% 0 mm
01:44 7.3 °C 4.9 °C 1027 hPa Calm     85% 0 mm
01:49 7.3 °C 4.9 °C 1027 hPa Calm     85% 0 mm
01:54 7.3 °C 4.9 °C 1027.3 hPa Calm     85% 0 mm
01:59 7.2 °C 4.8 °C 1027 hPa Calm     85% 0 mm
02:04 7.2 °C 4.8 °C 1027.3 hPa Calm     85% 0 mm
02:09 7.1 °C 4.7 °C 1027.3 hPa Calm     85% 0 mm
02:14 7.1 °C 4.7 °C 1027.3 hPa Calm     85% 0 mm
02:19 7 °C 4.7 °C 1027.3 hPa Calm     85% 0 mm
02:24 6.9 °C 4.6 °C 1027 hPa Calm     85% 0 mm
02:29 6.9 °C 4.6 °C 1027.3 hPa Calm     85% 0 mm
02:34 6.9 °C 4.6 °C 1027 hPa Calm     85% 0 mm
02:39 6.9 °C 4.6 °C 1027 hPa Calm     85% 0 mm
02:49 6.8 °C 4.4 °C 1027 hPa Calm     85% 0 mm
02:54 6.7 °C 4.4 °C 1027 hPa Calm     85% 0 mm
02:59 6.7 °C 4.3 °C 1027 hPa Calm     85% 0 mm
03:04 6.6 °C 4.3 °C 1027 hPa Calm     85% 0 mm
03:09 6.4 °C 4.1 °C 1027 hPa Calm     85% 0 mm
03:14 6.4 °C 4.2 °C 1027 hPa Calm     86% 0 mm
03:19 6.3 °C 4.2 °C 1027 hPa Calm     86% 0 mm
03:24 6.2 °C 4.1 °C 1027 hPa Calm     86% 0 mm
03:29 6.2 °C 4 °C 1027 hPa Calm     86% 0 mm
03:34 6.1 °C 3.9 °C 1027 hPa Calm     86% 0 mm
03:39 6.1 °C 3.9 °C 1027 hPa Calm     86% 0 mm
03:44 6 °C 4 °C 1027 hPa Calm     87% 0 mm
03:49 5.8 °C 3.8 °C 1027 hPa Calm     87% 0 mm
03:54 5.8 °C 3.8 °C 1027 hPa Calm     87% 0 mm
03:59 5.8 °C 3.8 °C 1027 hPa Calm     87% 0 mm
04:04 5.7 °C 3.7 °C 1027 hPa Calm     87% 0 mm
04:09 5.7 °C 3.7 °C 1027 hPa Calm     87% 0 mm
04:14 5.7 °C 3.7 °C 1027 hPa Calm     87% 0 mm
04:19 5.7 °C 3.7 °C 1027.3 hPa Calm     87% 0 mm
04:24 5.6 °C 3.6 °C 1027.3 hPa Calm     87% 0 mm
04:29 5.6 °C 3.6 °C 1027.3 hPa Calm     87% 0 mm
04:39 5.6 °C 3.8 °C 1027.3 hPa Calm     88% 0 mm
04:44 5.6 °C 3.7 °C 1027.3 hPa Calm     88% 0 mm
04:49 5.5 °C 3.5 °C 1027.3 hPa Calm     87% 0 mm
04:54 5.3 °C 3.3 °C 1027.3 hPa Calm     87% 0 mm
04:59 5.3 °C 3.5 °C 1027.3 hPa Calm     88% 0 mm
05:04 5.3 °C 3.5 °C 1027.3 hPa Calm     88% 0 mm
05:09 5.2 °C 3.4 °C 1027.3 hPa Calm     88% 0 mm
05:14 5.3 °C 3.5 °C 1027.3 hPa Calm     88% 0 mm
05:19 5.3 °C 3.4 °C 1027.3 hPa Calm     88% 0 mm
05:24 5.3 °C 3.4 °C 1027.3 hPa Calm     88% 0 mm
05:29 5.3 °C 3.5 °C 1027.3 hPa Calm     88% 0 mm
05:34 5.3 °C 3.4 °C 1027.7 hPa Calm     88% 0 mm
05:39 5.2 °C 3.4 °C 1027.7 hPa Calm     88% 0 mm
05:44 5.2 °C 3.4 °C 1027.7 hPa Calm     88% 0 mm
05:49 5.3 °C 3.5 °C 1028 hPa Calm     88% 0 mm
05:54 5.4 °C 3.6 °C 1028 hPa Calm     88% 0 mm
05:59 5.4 °C 3.6 °C 1028 hPa Calm     88% 0 mm
06:04 5.3 °C 3.5 °C 1028 hPa Calm     88% 0 mm
06:09 5.4 °C 3.6 °C 1028 hPa Calm     88% 0 mm
06:14 5.3 °C 3.5 °C 1028 hPa Calm     88% 0 mm
06:19 5.4 °C 3.6 °C 1028 hPa Calm     88% 0 mm
06:24 5.4 °C 3.4 °C 1028 hPa Calm     87% 0 mm
06:29 5.4 °C 3.4 °C 1028 hPa Calm     87% 0 mm
06:34 5.4 °C 3.4 °C 1028 hPa Calm     87% 0 mm
06:39 5.5 °C 3.5 °C 1028 hPa Calm     87% 0 mm
06:44 5.4 °C 3.4 °C 1028.3 hPa Calm     87% 0 mm
06:49 5.5 °C 3.5 °C 1028.3 hPa Calm     87% 0 mm
06:54 5.6 °C 3.6 °C 1028.3 hPa Calm     87% 0 mm
06:59 5.7 °C 3.7 °C 1028.3 hPa Calm     87% 0 mm
07:04 5.8 °C 3.8 °C 1028.3 hPa Calm     87% 0 mm
07:09 5.8 °C 3.7 °C 1028.3 hPa Calm     86% 0 mm
07:14 5.9 °C 3.7 °C 1028.3 hPa ENE 1.6 km/h 3.2 km/h 86% 0 mm
07:19 5.9 °C 3.8 °C 1028.3 hPa Calm   3.2 km/h 86% 0 mm
07:24 6 °C 3.8 °C 1028.7 hPa Calm   4.8 km/h 86% 0 mm
07:29 6.1 °C 3.7 °C 1028.7 hPa Calm     85% 0 mm
07:34 6.2 °C 3.8 °C 1028.7 hPa Calm     85% 0 mm
07:39 6.2 °C 3.9 °C 1028.7 hPa Calm     85% 0 mm
07:44 6.4 °C 3.9 °C 1029 hPa Calm     84% 0 mm
07:49 6.6 °C 4.1 °C 1029 hPa Calm   3.2 km/h 84% 0 mm
07:54 6.7 °C 4.2 °C 1029 hPa Calm   3.2 km/h 84% 0 mm
07:59 6.9 °C 4.2 °C 1029 hPa Calm     83% 0 mm
08:04 7.1 °C 4.4 °C 1029 hPa Calm     83% 0 mm
08:09 7.3 °C 4.4 °C 1029 hPa Calm     82% 0 mm
08:14 7.5 °C 4.4 °C 1029 hPa Calm   1.6 km/h 81% 0 mm
08:19 7.7 °C 4.7 °C 1029 hPa Calm   1.6 km/h 81% 0 mm
08:24 7.9 °C 4.7 °C 1029 hPa Calm     80% 0 mm
08:29 8.2 °C 4.9 °C 1029 hPa Calm   3.2 km/h 80% 0 mm
08:34 8.4 °C 5 °C 1029 hPa Calm   3.2 km/h 79% 0 mm
08:39 8.8 °C 5.2 °C 1029 hPa Calm     78% 0 mm
08:44 9.4 °C 5.6 °C 1029 hPa Calm   3.2 km/h 77% 0 mm
08:49 9.7 °C 5.7 °C 1029 hPa Calm   3.2 km/h 76% 0 mm
08:54 10.1 °C 5.6 °C 1029 hPa Calm     74% 0 mm
08:59 10.1 °C 5.8 °C 1029.3 hPa Calm   3.2 km/h 75% 0 mm
09:04 10.3 °C 6.1 °C 1029.3 hPa Calm   3.2 km/h 75% 0 mm
09:09 10.7 °C 6 °C 1029.3 hPa Calm   1.6 km/h 73% 0 mm
09:14 11.1 °C 6.2 °C 1029.3 hPa Calm   3.2 km/h 72% 0 mm
09:19 11.4 °C 6.6 °C 1029.3 hPa Calm   3.2 km/h 72% 0 mm
09:24 11.9 °C 6.8 °C 1029.3 hPa Calm   3.2 km/h 71% 0 mm
09:29 12.3 °C 6.8 °C 1029.3 hPa Calm   4.8 km/h 69% 0 mm
09:34 12.7 °C 6.9 °C 1029.3 hPa SSE 1.6 km/h 4.8 km/h 68% 0 mm
09:39 12.8 °C 7.5 °C 1029.3 hPa SSE 1.6 km/h 4.8 km/h 70% 0 mm
09:44 13.2 °C 7.2 °C 1029.3 hPa SSE 3.2 km/h 3.2 km/h 67% 0 mm
09:49 13.5 °C 7.5 °C 1029.3 hPa Calm   3.2 km/h 67% 0 mm
09:54 13.8 °C 7.6 °C 1029.3 hPa Calm   4.8 km/h 66% 0 mm
09:59 14.2 °C 7.4 °C 1029.3 hPa SSE 1.6 km/h 4.8 km/h 64% 0 mm
10:04 14.5 °C 7.8 °C 1029.3 hPa Calm   3.2 km/h 64% 0 mm
10:09 15.1 °C 8.3 °C 1029.3 hPa SSE 3.2 km/h 4.8 km/h 64% 0 mm
10:14 15.2 °C 8.4 °C 1029.3 hPa Calm   3.2 km/h 64% 0 mm
10:19 15.6 °C 8.1 °C 1029.7 hPa SSE 1.6 km/h 3.2 km/h 61% 0 mm
10:24 15.8 °C 7.8 °C 1029.7 hPa SSE 1.6 km/h 4.8 km/h 59% 0 mm
10:29 16.3 °C 8.2 °C 1029.7 hPa Calm   4.8 km/h 59% 0 mm
10:34 16.7 °C 7.9 °C 1029.7 hPa Calm   4.8 km/h 56% 0 mm
10:39 17 °C 7.6 °C 1029.3 hPa East 1.6 km/h 3.2 km/h 54% 0 mm
10:44 17.4 °C 7.4 °C 1029.3 hPa Calm   4.8 km/h 52% 0 mm
10:49 17.4 °C 7.2 °C 1029.3 hPa ESE 1.6 km/h 6.4 km/h 51% 0 mm
10:54 17.4 °C 7.2 °C 1029.7 hPa SSE 1.6 km/h 6.4 km/h 51% 0 mm
10:59 17.7 °C 7.4 °C 1029.7 hPa SSE 1.6 km/h 6.4 km/h 51% 0 mm
11:04 17.8 °C 6.9 °C 1029.7 hPa SSE 1.6 km/h 6.4 km/h 49% 0 mm
11:09 18.1 °C 6.9 °C 1029.7 hPa SE 3.2 km/h 8 km/h 48% 0 mm
11:14 18.2 °C 7.3 °C 1029.7 hPa Calm   6.4 km/h 49% 0 mm
11:19 18.6 °C 7.6 °C 1029.7 hPa SE 1.6 km/h 6.4 km/h 49% 0 mm
11:24 18.7 °C 6.8 °C 1029.7 hPa ESE 1.6 km/h 8 km/h 46% 0 mm
11:29 18.7 °C 7.4 °C 1029.3 hPa SE 1.6 km/h 6.4 km/h 48% 0 mm
11:34 18.9 °C 7.1 °C 1029.7 hPa ENE 3.2 km/h 4.8 km/h 46% 0 mm
11:39 18.8 °C 7.9 °C 1029.3 hPa NE 1.6 km/h 8 km/h 49% 0 mm
11:44 19.6 °C 6.9 °C 1029.7 hPa Calm   8 km/h 44% 0 mm
11:54 19.6 °C 6.7 °C 1029.3 hPa Calm   6.4 km/h 43% 0 mm
11:59 19.7 °C 7.4 °C 1029.3 hPa East 1.6 km/h 8 km/h 45% 0 mm
12:04 19.9 °C 8.2 °C 1029.3 hPa East 3.2 km/h 8 km/h 47% 0 mm
12:09 19.9 °C 6.6 °C 1029.3 hPa ESE 3.2 km/h 9.7 km/h 42% 0 mm
12:14 20.1 °C 6.4 °C 1029.3 hPa Calm   6.4 km/h 41% 0 mm
12:19 20.2 °C 6.9 °C 1029.3 hPa SSE 1.6 km/h 8 km/h 42% 0 mm
12:24 20.1 °C 5.3 °C 1029.3 hPa Calm   6.4 km/h 38% 0 mm
12:29 20.5 °C 6.1 °C 1029.3 hPa SSE 3.2 km/h 8 km/h 39% 0 mm
12:34 20.5 °C 6.1 °C 1029.3 hPa SSE 3.2 km/h 9.7 km/h 39% 0 mm
12:39 20.6 °C 8.2 °C 1029.3 hPa SSE 3.2 km/h 6.4 km/h 45% 0 mm
12:44 20.6 °C 5.4 °C 1029 hPa Calm   8 km/h 37% 0 mm
12:49 20.6 °C 5.7 °C 1029.3 hPa Calm   4.8 km/h 38% 0 mm
12:54 21.1 °C 5.8 °C 1029.3 hPa SSE 1.6 km/h 6.4 km/h 37% 0 mm
12:59 21.1 °C 5.4 °C 1029.3 hPa SE 1.6 km/h 6.4 km/h 36% 0 mm
13:04 21.2 °C 6.3 °C 1029.3 hPa SW 1.6 km/h 4.8 km/h 38% 0 mm
13:09 21.3 °C 6.4 °C 1029 hPa Calm   4.8 km/h 38% 0 mm
13:14 21.7 °C 6.4 °C 1029 hPa Calm   4.8 km/h 37% 0 mm
13:19 21.8 °C 7.2 °C 1029 hPa ENE 1.6 km/h 8 km/h 39% 0 mm
13:24 21.5 °C 7.3 °C 1029 hPa ENE 3.2 km/h 8 km/h 40% 0 mm
13:29 21.4 °C 8 °C 1029 hPa NE 1.6 km/h 8 km/h 42% 0 mm
13:34 21.8 °C 8.3 °C 1029 hPa NNE 1.6 km/h 8 km/h 42% 0 mm
13:39 22.1 °C 7.1 °C 1029 hPa Calm   4.8 km/h 38% 0 mm
13:44 21.8 °C 7.3 °C 1028.7 hPa SE 3.2 km/h 8 km/h 39% 0 mm
13:49 22 °C 6.2 °C 1028.7 hPa SE 3.2 km/h 6.4 km/h 36% 0 mm
13:54 21.8 °C 8 °C 1028.7 hPa Calm   4.8 km/h 41% 0 mm
13:59 21.7 °C 5.2 °C 1028.7 hPa SE 1.6 km/h 4.8 km/h 34% 0 mm
14:04 21.8 °C 4.8 °C 1028.7 hPa WSW 1.6 km/h 6.4 km/h 33% 0 mm
14:09 22.2 °C 6 °C 1028.7 hPa SSE 1.6 km/h 6.4 km/h 35% 0 mm
14:14 22.3 °C 6.9 °C 1028.3 hPa ENE 3.2 km/h 6.4 km/h 37% 0 mm
14:19 22.7 °C 7.2 °C 1028.3 hPa Calm   8 km/h 37% 0 mm
14:24 22.6 °C 6.8 °C 1028.3 hPa SE 3.2 km/h 9.7 km/h 36% 0 mm
14:29 22.6 °C 7.5 °C 1028 hPa SSE 1.6 km/h 9.7 km/h 38% 0 mm
14:34 23.1 °C 7.2 °C 1028 hPa SSE 3.2 km/h 9.7 km/h 36% 0 mm
14:39 23.1 °C 6.4 °C 1028 hPa ESE 3.2 km/h 9.7 km/h 34% 0 mm
14:44 22.9 °C 7 °C 1028 hPa South 3.2 km/h 6.4 km/h 36% 0 mm
14:49 22.8 °C 6.1 °C 1028 hPa SSE 4.8 km/h 8 km/h 34% 0 mm
14:54 22.9 °C 6.2 °C 1028 hPa SE 4.8 km/h 11.3 km/h 34% 0 mm
14:59 22.9 °C 7.9 °C 1028 hPa SSE 3.2 km/h 11.3 km/h 38% 0 mm
15:04 23.2 °C 6.4 °C 1028 hPa SE 4.8 km/h 4.8 km/h 34% 0 mm
15:09 23.2 °C 6.4 °C 1027.7 hPa ESE 8 km/h 9.7 km/h 34% 0 mm
15:14 23.2 °C 7.3 °C 1027.7 hPa SE 4.8 km/h 9.7 km/h 36% 0 mm
15:19 23.2 °C 6.4 °C 1027.7 hPa Calm   4.8 km/h 34% 0 mm
15:24 23.5 °C 7.9 °C 1027.7 hPa Calm   1.6 km/h 37% 0 mm
15:29 23.6 °C 5.9 °C 1027.7 hPa East 1.6 km/h 11.3 km/h 32% 0 mm
15:34 23.2 °C 5.6 °C 1027.7 hPa ESE 3.2 km/h 11.3 km/h 32% 0 mm
15:39 23.3 °C 5.7 °C 1027.7 hPa SE 3.2 km/h 6.4 km/h 32% 0 mm
15:44 23.4 °C 7.5 °C 1027.7 hPa ESE 3.2 km/h 6.4 km/h 36% 0 mm
15:49 23.6 °C 7.2 °C 1027.7 hPa East 4.8 km/h 9.7 km/h 35% 0 mm
15:54 23.3 °C 6.6 °C 1027.7 hPa East 3.2 km/h 11.3 km/h 34% 0 mm
15:59 23.3 °C 6.6 °C 1027.7 hPa East 3.2 km/h 11.3 km/h 34% 0 mm
16:04 23.2 °C 6.4 °C 1027.7 hPa SE 1.6 km/h 8 km/h 34% 0 mm
16:09 23.3 °C 5.2 °C 1027.7 hPa ENE 6.4 km/h 11.3 km/h 31% 0 mm
16:14 23.1 °C 5.1 °C 1027.7 hPa Calm   6.4 km/h 31% 0 mm
16:19 23.3 °C 5.2 °C 1027.7 hPa SE 1.6 km/h 6.4 km/h 31% 0 mm
16:24 23.3 °C 6.6 °C 1027.7 hPa ENE 3.2 km/h 9.7 km/h 34% 0 mm
16:29 23.2 °C 6 °C 1027.7 hPa ENE 3.2 km/h 9.7 km/h 33% 0 mm
16:34 23.3 °C 6.2 °C 1027.7 hPa ENE 3.2 km/h 8 km/h 33% 0 mm
16:39 23.2 °C 7.7 °C 1027.7 hPa NE 8 km/h 14.5 km/h 37% 0 mm
16:44 22.8 °C 7.8 °C 1027.7 hPa ENE 3.2 km/h 11.3 km/h 38% 0 mm
16:49 22.9 °C 8.2 °C 1027.7 hPa NE 4.8 km/h 8 km/h 39% 0 mm
16:54 22.9 °C 9.3 °C 1027.7 hPa NE 3.2 km/h 4.8 km/h 42% 0 mm
16:59 22.6 °C 9.1 °C 1027.7 hPa NE 3.2 km/h 6.4 km/h 42% 0 mm
17:04 22.4 °C 9.6 °C 1027.7 hPa NNE 3.2 km/h 9.7 km/h 44% 0 mm
17:09 22.4 °C 9.6 °C 1027.7 hPa North 3.2 km/h 11.3 km/h 44% 0 mm
17:14 22.2 °C 9.4 °C 1027.7 hPa NE 3.2 km/h 6.4 km/h 44% 0 mm
17:19 22.1 °C 9.6 °C 1027.7 hPa Calm   6.4 km/h 45% 0 mm
17:24 21.7 °C 9.8 °C 1028 hPa ENE 3.2 km/h 4.8 km/h 47% 0 mm
17:29 21.4 °C 9 °C 1028 hPa NE 3.2 km/h 12.9 km/h 45% 0 mm
17:34 21.1 °C 9.7 °C 1028 hPa Calm   12.9 km/h 48% 0 mm
17:39 20.9 °C 9.2 °C 1028 hPa ENE 3.2 km/h 11.3 km/h 47% 0 mm
17:44 20.8 °C 9.7 °C 1028 hPa NE 1.6 km/h 11.3 km/h 49% 0 mm
17:49 20.5 °C 9.4 °C 1028 hPa NE 3.2 km/h 3.2 km/h 49% 0 mm
17:54 20.5 °C 9.1 °C 1028 hPa ENE 1.6 km/h 8 km/h 48% 0 mm
17:59 20.4 °C 9.6 °C 1028 hPa NE 1.6 km/h 11.3 km/h 50% 0 mm
18:04 20.2 °C 9.2 °C 1028.3 hPa NE 3.2 km/h 12.9 km/h 49% 0 mm
18:09 20.2 °C 9.2 °C 1028.3 hPa NE 4.8 km/h 12.9 km/h 49% 0 mm
18:14 20.2 °C 9.1 °C 1028.3 hPa NE 4.8 km/h 9.7 km/h 49% 0 mm
18:19 20.1 °C 9.3 °C 1028 hPa NE 4.8 km/h 8 km/h 50% 0 mm
18:24 19.9 °C 8.9 °C 1028.3 hPa NE 4.8 km/h 12.9 km/h 49% 0 mm
18:29 19.8 °C 9.1 °C 1028.3 hPa NE 4.8 km/h 12.9 km/h 50% 0 mm
18:34 19.6 °C 9.2 °C 1028.3 hPa ENE 8 km/h 8 km/h 51% 0 mm
18:39 19.4 °C 9 °C 1028.3 hPa NE 3.2 km/h 8 km/h 51% 0 mm
18:44 19.3 °C 9.2 °C 1028.3 hPa NE 3.2 km/h 6.4 km/h 52% 0 mm
18:49 19.1 °C 9 °C 1028.7 hPa Calm   8 km/h 52% 0 mm
18:54 18.9 °C 9.2 °C 1028.3 hPa ENE 1.6 km/h 6.4 km/h 53% 0 mm
18:59 18.8 °C 9 °C 1028.3 hPa ENE 3.2 km/h 12.9 km/h 53% 0 mm
19:04 18.6 °C 8.8 °C 1028.3 hPa NE 6.4 km/h 12.9 km/h 53% 0 mm
19:09 18.5 °C 8.7 °C 1028.3 hPa NE 6.4 km/h 11.3 km/h 53% 0 mm
19:14 18.3 °C 8.6 °C 1028.3 hPa ENE 4.8 km/h 11.3 km/h 53% 0 mm
19:19 18.3 °C 8.6 °C 1028.7 hPa NE 4.8 km/h 11.3 km/h 53% 0 mm
19:24 18.1 °C 8.6 °C 1028.7 hPa NE 3.2 km/h 9.7 km/h 54% 0 mm
19:29 17.9 °C 8.4 °C 1028.7 hPa NE 1.6 km/h 6.4 km/h 54% 0 mm
19:34 17.6 °C 8.4 °C 1028.7 hPa Calm   6.4 km/h 55% 0 mm
19:39 17.2 °C 8.6 °C 1028.7 hPa Calm   4.8 km/h 57% 0 mm
19:44 16.8 °C 8.8 °C 1028.7 hPa Calm   3.2 km/h 59% 0 mm
19:49 16.6 °C 9 °C 1028.7 hPa Calm   3.2 km/h 61% 0 mm
19:54 16.4 °C 9.4 °C 1028.7 hPa Calm   4.8 km/h 63% 0 mm
19:59 16.3 °C 9.7 °C 1028.7 hPa Calm   9.7 km/h 65% 0 mm
20:04 16 °C 9.9 °C 1028.7 hPa NE 1.6 km/h 9.7 km/h 67% 0 mm
20:09 15.7 °C 10.1 °C 1029 hPa Calm   6.4 km/h 69% 0 mm
20:14 15.5 °C 10.3 °C 1029 hPa Calm   3.2 km/h 71% 0 mm
20:19 15.5 °C 10.3 °C 1029 hPa Calm   6.4 km/h 71% 0 mm
20:24 15.4 °C 10.2 °C 1029 hPa Calm   3.2 km/h 71% 0 mm
20:29 15.3 °C 10.3 °C 1029 hPa Calm   6.4 km/h 72% 0 mm
20:34 15.2 °C 10.2 °C 1029 hPa NE 1.6 km/h 6.4 km/h 72% 0 mm
20:39 15.1 °C 10.3 °C 1029.3 hPa NE 1.6 km/h 6.4 km/h 73% 0 mm
20:44 14.9 °C 10.2 °C 1029.3 hPa NE 1.6 km/h 4.8 km/h 73% 0 mm
20:49 14.9 °C 9.9 °C 1029.3 hPa ENE 1.6 km/h 8 km/h 72% 0 mm
20:54 15 °C 9.8 °C 1029.3 hPa ENE 3.2 km/h 6.4 km/h 71% 0 mm
20:59 14.9 °C 9.7 °C 1029.3 hPa ENE 3.2 km/h 6.4 km/h 71% 0 mm
21:04 14.8 °C 9.6 °C 1029.3 hPa ENE 3.2 km/h 6.4 km/h 71% 0 mm
21:09 14.7 °C 9.4 °C 1029.3 hPa ENE 3.2 km/h 6.4 km/h 71% 0 mm
21:14 14.6 °C 9.3 °C 1029.3 hPa Calm   3.2 km/h 71% 0 mm
21:19 14.4 °C 9.2 °C 1029.3 hPa ENE 1.6 km/h 4.8 km/h 71% 0 mm
21:24 14.3 °C 9.1 °C 1029.3 hPa Calm   1.6 km/h 71% 0 mm
21:29 14.2 °C 9.1 °C 1029.3 hPa Calm     71% 0 mm
21:34 14.1 °C 8.9 °C 1029.3 hPa Calm     71% 0 mm
21:39 13.9 °C 8.8 °C 1029.3 hPa Calm     71% 0 mm
21:44 13.8 °C 8.8 °C 1029.3 hPa Calm     72% 0 mm
21:49 13.7 °C 8.8 °C 1029.3 hPa Calm     72% 0 mm
21:54 13.6 °C 8.6 °C 1029.3 hPa Calm     72% 0 mm
21:59 13.4 °C 8.5 °C 1029.3 hPa Calm     72% 0 mm
22:04 13.4 °C 8.4 °C 1029.3 hPa Calm     72% 0 mm
22:09 13.2 °C 8.2 °C 1029.3 hPa Calm     72% 0 mm
22:14 13.1 °C 8.4 °C 1029.3 hPa Calm     73% 0 mm
22:19 13.1 °C 8.3 °C 1029.3 hPa ENE 1.6 km/h 3.2 km/h 73% 0 mm
22:24 13.1 °C 8.3 °C 1029.3 hPa Calm   1.6 km/h 73% 0 mm
22:29 12.9 °C 8.2 °C 1029.3 hPa Calm     73% 0 mm
22:34 12.7 °C 8 °C 1029.3 hPa Calm     73% 0 mm
22:39 12.6 °C 8.1 °C 1029.3 hPa Calm     74% 0 mm
22:44 12.4 °C 7.9 °C 1029.3 hPa Calm     74% 0 mm
22:49 12.4 °C 7.9 °C 1029.3 hPa Calm     74% 0 mm
22:54 12.3 °C 7.9 °C 1029.3 hPa Calm     75% 0 mm
22:59 12.1 °C 7.8 °C 1029.3 hPa Calm     75% 0 mm
23:04 12 °C 7.7 °C 1029.3 hPa Calm     75% 0 mm
23:09 11.9 °C 7.8 °C 1029.3 hPa Calm     76% 0 mm
23:24 11.2 °C 7.3 °C 1029.3 hPa Calm     77% 0 mm
23:29 11.3 °C 7.4 °C 1029.3 hPa Calm     77% 0 mm
23:34 11.2 °C 7.3 °C 1029.3 hPa Calm     77% 0 mm
23:39 11.2 °C 7.3 °C 1029.3 hPa Calm     77% 0 mm
23:44 11.2 °C 7.3 °C 1029 hPa Calm     77% 0 mm
23:49 11.3 °C 7.4 °C 1029.3 hPa Calm     77% 0 mm
23:54 11.3 °C 7.4 °C 1029.3 hPa Calm     77% 0 mm
23:59 11.3 °C 7.4 °C 1029.3 hPa Calm     77% 0 mm
Buffalo, New York, USA
Compliments of Weather Underground - 2.5 mb